createdAt,value
2019-06-08T00:01:10.655Z,0.80
2019-06-08T00:03:39.915Z,0.90
2019-06-08T00:06:09.141Z,0.80
2019-06-08T00:08:38.434Z,0.83
2019-06-08T00:11:07.733Z,0.70
2019-06-08T00:13:37.025Z,0.80
2019-06-08T00:16:06.433Z,0.70
2019-06-08T00:18:35.727Z,0.70
2019-06-08T00:21:05.051Z,1.00
2019-06-08T00:23:34.343Z,0.90
2019-06-08T00:26:03.700Z,1.00
2019-06-08T00:28:33.073Z,0.90
2019-06-08T00:31:02.300Z,1.20
2019-06-08T00:33:31.534Z,1.20
2019-06-08T00:36:00.763Z,0.83
2019-06-08T00:38:30.128Z,0.80
2019-06-08T00:40:59.452Z,1.13
2019-06-08T00:43:28.658Z,1.17
2019-06-08T00:45:57.877Z,0.90
2019-06-08T00:48:27.240Z,0.70
2019-06-08T00:50:56.535Z,1.03
2019-06-08T00:53:25.790Z,1.23
2019-06-08T00:55:55.114Z,0.90
2019-06-08T00:58:24.643Z,1.00
2019-06-08T01:00:53.899Z,0.80
2019-06-08T01:03:23.785Z,1.13
2019-06-08T01:05:53.162Z,1.90
2019-06-08T01:08:23.810Z,0.73
2019-06-08T01:10:53.659Z,0.87
2019-06-08T01:13:23.222Z,0.80
2019-06-08T01:15:52.444Z,0.73
2019-06-08T01:18:22.907Z,0.90
2019-06-08T01:20:52.787Z,0.80
2019-06-08T01:23:21.988Z,1.00
2019-06-08T01:25:51.247Z,1.43
2019-06-08T01:28:20.460Z,1.20
2019-06-08T01:30:50.241Z,1.20
2019-06-08T01:33:20.425Z,1.20
2019-06-08T01:36:09.109Z,1.00
2019-06-08T01:38:38.460Z,1.00
2019-06-08T01:41:07.716Z,1.00
2019-06-08T01:43:37.040Z,1.97
2019-06-08T01:46:06.377Z,1.17
2019-06-08T01:48:35.616Z,0.90
2019-06-08T01:51:04.812Z,1.00
2019-06-08T01:53:34.043Z,1.87
2019-06-08T01:56:03.256Z,1.53
2019-06-08T01:58:33.509Z,1.23
2019-06-08T02:01:02.880Z,1.10
2019-06-08T02:03:32.723Z,1.13
2019-06-08T02:06:02.094Z,1.03
2019-06-08T02:08:32.584Z,1.33
2019-06-08T02:11:01.930Z,0.90
2019-06-08T02:13:31.208Z,1.00
2019-06-08T02:16:00.521Z,1.43
2019-06-08T02:18:41.819Z,1.07
2019-06-08T02:21:00.702Z,1.10
2019-06-08T02:23:31.095Z,0.83
2019-06-08T02:26:00.550Z,1.13
2019-06-08T02:28:29.852Z,1.20
2019-06-08T02:30:59.159Z,1.57
2019-06-08T02:33:29.936Z,1.40
2019-06-08T02:35:59.637Z,1.40
2019-06-08T02:38:29.881Z,1.13
2019-06-08T02:40:59.998Z,1.00
2019-06-08T02:43:30.804Z,1.53
2019-06-08T02:46:00.178Z,1.50
2019-06-08T02:48:30.014Z,1.10
2019-06-08T02:51:15.382Z,1.43
2019-06-08T02:53:44.795Z,1.33
2019-06-08T02:56:15.361Z,1.23
2019-06-08T02:58:44.834Z,1.30
2019-06-08T03:01:16.710Z,1.70
2019-06-08T03:03:48.063Z,1.50
2019-06-08T03:06:20.389Z,1.40
2019-06-08T03:08:50.753Z,1.53
2019-06-08T03:11:21.182Z,1.43
2019-06-08T03:13:52.509Z,2.13
2019-06-08T03:16:21.763Z,1.07
2019-06-08T03:18:51.131Z,1.17
2019-06-08T03:21:20.511Z,1.37
2019-06-08T03:23:49.956Z,1.40
2019-06-08T03:26:19.298Z,1.53
2019-06-08T03:28:48.623Z,1.23
2019-06-08T03:31:17.830Z,1.73
2019-06-08T03:33:54.344Z,1.60
2019-06-08T03:36:18.174Z,1.40
2019-06-08T03:38:47.454Z,1.27
2019-06-08T03:41:16.838Z,0.90
2019-06-08T03:43:46.222Z,1.53
2019-06-08T03:46:15.498Z,1.17
2019-06-08T03:48:46.519Z,1.03
2019-06-08T03:51:15.564Z,1.60
2019-06-08T03:53:47.237Z,1.37
2019-06-08T03:56:15.704Z,1.33
2019-06-08T03:58:47.260Z,1.33
2019-06-08T04:01:15.952Z,1.70
2019-06-08T04:03:46.257Z,1.00
2019-06-08T04:06:15.735Z,1.03
2019-06-08T04:08:47.241Z,1.50
2019-06-08T04:11:15.968Z,0.93
2019-06-08T04:13:47.137Z,1.20
2019-06-08T04:16:16.196Z,1.17
2019-06-08T04:18:46.754Z,1.53
2019-06-08T04:21:16.397Z,0.93
2019-06-08T04:23:47.192Z,1.27
2019-06-08T04:26:16.600Z,1.33
2019-06-08T04:28:47.306Z,1.20
2019-06-08T04:31:16.856Z,1.90
2019-06-08T04:33:46.646Z,1.30
2019-06-08T04:36:16.121Z,1.33
2019-06-08T04:38:46.243Z,1.40
2019-06-08T04:41:16.263Z,1.37
2019-06-08T04:43:47.390Z,1.40
2019-06-08T04:46:16.828Z,1.70
2019-06-08T04:48:49.932Z,1.40
2019-06-08T04:51:19.668Z,1.20
2019-06-08T04:53:49.503Z,0.87
2019-06-08T04:56:19.117Z,1.63
2019-06-08T04:58:50.820Z,1.70
2019-06-08T05:01:28.456Z,1.70
2019-06-08T05:03:57.742Z,1.50
2019-06-08T05:06:26.922Z,1.50
2019-06-08T05:08:56.194Z,2.77
2019-06-08T05:11:25.498Z,1.50
2019-06-08T05:13:54.740Z,1.70
2019-06-08T05:16:24.000Z,1.43
2019-06-08T05:18:53.218Z,1.13
2019-06-08T05:21:22.517Z,1.57
2019-06-08T05:23:58.551Z,1.33
2019-06-08T05:26:31.993Z,1.30
2019-06-08T05:29:01.557Z,1.40
2019-06-08T05:31:30.940Z,1.40
2019-06-08T05:34:00.176Z,1.70
2019-06-08T05:36:29.450Z,1.20
2019-06-08T05:38:58.685Z,1.27
2019-06-08T05:41:27.977Z,1.50
2019-06-08T05:43:57.279Z,1.30
2019-06-08T05:46:26.493Z,1.30
2019-06-08T05:48:55.740Z,1.50
2019-06-08T05:51:25.023Z,1.73
2019-06-08T05:53:54.327Z,1.17
2019-06-08T05:56:23.662Z,1.70
2019-06-08T05:58:52.990Z,1.60
2019-06-08T06:01:22.202Z,1.30
2019-06-08T06:03:51.966Z,1.67
2019-06-08T06:06:21.276Z,1.37
2019-06-08T06:08:50.910Z,1.50
2019-06-08T06:11:20.412Z,1.50
2019-06-08T06:13:49.900Z,1.50
2019-06-08T06:16:20.469Z,1.20
2019-06-08T06:18:51.974Z,1.37
2019-06-08T06:21:20.798Z,1.13
2019-06-08T06:23:51.412Z,1.63
2019-06-08T06:26:20.951Z,1.30
2019-06-08T06:28:51.667Z,1.87
2019-06-08T06:31:21.238Z,1.50
2019-06-08T06:33:52.081Z,1.90
2019-06-08T06:36:21.728Z,1.33
2019-06-08T06:38:52.211Z,1.40
2019-06-08T06:41:21.700Z,1.37
2019-06-08T06:43:52.151Z,1.40
2019-06-08T06:46:21.563Z,1.60
2019-06-08T06:48:50.891Z,1.47
2019-06-08T06:51:26.319Z,2.00
2019-06-08T06:53:51.254Z,1.73
2019-06-08T06:56:20.554Z,1.50
2019-06-08T06:58:49.802Z,1.53
2019-06-08T07:01:19.151Z,1.47
2019-06-08T07:03:48.419Z,1.63
2019-06-08T07:06:17.622Z,1.20
2019-06-08T07:08:48.261Z,1.60
2019-06-08T07:11:17.574Z,1.63
2019-06-08T07:13:46.771Z,1.83
2019-06-08T07:16:18.997Z,1.60
2019-06-08T07:18:48.187Z,1.53
2019-06-08T07:21:17.765Z,2.10
2019-06-08T07:23:49.126Z,1.93
2019-06-08T07:26:18.067Z,1.40
2019-06-08T07:28:48.140Z,1.83
2019-06-08T07:31:37.361Z,1.73
2019-06-08T07:34:06.624Z,1.90
2019-06-08T07:36:35.898Z,2.00
2019-06-08T07:39:06.913Z,1.70
2019-06-08T07:41:36.117Z,1.80
2019-06-08T07:44:05.533Z,1.83
2019-06-08T07:46:34.756Z,1.60
2019-06-08T07:49:04.002Z,1.93
2019-06-08T07:51:33.253Z,2.00
2019-06-08T07:54:02.473Z,2.47
2019-06-08T07:56:31.785Z,1.20
2019-06-08T07:59:01.167Z,1.77
2019-06-08T08:01:36.029Z,2.40
2019-06-08T08:04:01.708Z,2.00
2019-06-08T08:06:30.952Z,2.00
2019-06-08T08:09:00.298Z,1.50
2019-06-08T08:11:29.560Z,1.77
2019-06-08T08:13:59.163Z,2.00
2019-06-08T08:16:28.658Z,1.87
2019-06-08T08:18:57.862Z,1.70
2019-06-08T08:21:29.394Z,1.83
2019-06-08T08:24:00.175Z,1.90
2019-06-08T08:26:31.274Z,2.40
2019-06-08T08:29:02.974Z,1.67
2019-06-08T08:31:30.979Z,1.97
2019-06-08T08:34:05.596Z,1.63
2019-06-08T08:36:33.411Z,1.60
2019-06-08T08:39:21.968Z,1.93
2019-06-08T08:41:56.541Z,1.73
2019-06-08T08:44:22.263Z,1.70
2019-06-08T08:46:53.569Z,1.77
2019-06-08T08:49:22.730Z,1.90
2019-06-08T08:51:52.200Z,2.13
2019-06-08T08:54:21.820Z,1.60
2019-06-08T08:56:54.741Z,1.97
2019-06-08T08:59:22.128Z,1.90
2019-06-08T09:01:52.848Z,1.80
2019-06-08T09:04:22.195Z,1.90
2019-06-08T09:06:52.429Z,1.93
2019-06-08T09:09:22.449Z,1.30
2019-06-08T09:11:53.057Z,1.93
2019-06-08T09:14:22.794Z,1.37
2019-06-08T09:16:53.624Z,1.67
2019-06-08T09:19:23.122Z,1.63
2019-06-08T09:21:52.946Z,1.53
2019-06-08T09:24:23.360Z,1.40
2019-06-08T09:26:54.121Z,1.50
2019-06-08T09:29:23.502Z,1.30
2019-06-08T09:31:53.723Z,1.63
2019-06-08T09:34:23.242Z,1.40
2019-06-08T09:36:52.627Z,1.53
2019-06-08T09:39:23.050Z,1.50
2019-06-08T09:41:53.875Z,1.10
2019-06-08T09:44:23.324Z,2.10
2019-06-08T09:46:53.605Z,1.83
2019-06-08T09:49:23.172Z,1.77
2019-06-08T09:51:53.841Z,1.10
2019-06-08T09:54:23.568Z,1.60
2019-06-08T09:56:53.685Z,1.97
2019-06-08T09:59:23.197Z,2.00
2019-06-08T10:01:54.025Z,1.23
2019-06-08T10:04:25.594Z,1.97
2019-06-08T10:06:54.539Z,2.67
2019-06-08T10:09:23.836Z,1.30
2019-06-08T10:11:54.286Z,1.57
2019-06-08T10:14:23.607Z,1.63
2019-06-08T10:16:54.098Z,2.43
2019-06-08T10:19:23.495Z,1.83
2019-06-08T10:21:52.747Z,2.13
2019-06-08T10:24:22.090Z,1.70
2019-06-08T10:26:51.307Z,2.00
2019-06-08T10:29:20.516Z,1.80
2019-06-08T10:31:49.832Z,1.30
2019-06-08T10:34:19.117Z,1.30
2019-06-08T10:36:48.565Z,1.37
2019-06-08T10:39:17.865Z,1.50
2019-06-08T10:41:51.272Z,2.07
2019-06-08T10:44:18.774Z,1.40
2019-06-08T10:46:48.446Z,1.10
2019-06-08T10:49:18.676Z,1.77
2019-06-08T10:51:48.898Z,1.27
2019-06-08T10:54:18.749Z,1.20
2019-06-08T10:56:48.617Z,2.00
2019-06-08T10:59:18.644Z,1.13
2019-06-08T11:01:48.382Z,1.53
2019-06-08T11:04:18.608Z,1.20
2019-06-08T11:06:48.184Z,1.37
2019-06-08T11:09:18.844Z,2.00
2019-06-08T11:11:49.936Z,1.60
2019-06-08T11:14:22.550Z,1.70
2019-06-08T11:16:50.577Z,1.70
2019-06-08T11:19:20.017Z,1.63
2019-06-08T11:21:49.590Z,1.70
2019-06-08T11:24:24.716Z,1.27
2019-06-08T11:26:50.152Z,1.70
2019-06-08T11:29:19.619Z,1.33
2019-06-08T11:31:50.922Z,1.40
2019-06-08T11:34:21.904Z,1.67
2019-06-08T11:36:51.536Z,1.83
2019-06-08T11:39:21.168Z,2.03
2019-06-08T11:41:50.678Z,1.50
2019-06-08T11:44:20.186Z,2.00
2019-06-08T11:46:49.688Z,1.97
2019-06-08T11:49:19.155Z,1.60
2019-06-08T11:51:48.658Z,1.80
2019-06-08T11:54:33.174Z,1.70
2019-06-08T11:56:51.566Z,3.07
2019-06-08T11:59:21.188Z,2.50
2019-06-08T12:01:51.094Z,2.70
2019-06-08T12:04:21.122Z,2.50
2019-06-08T12:06:50.655Z,3.00
2019-06-08T12:09:19.999Z,3.57
2019-06-08T12:11:49.208Z,3.10
2019-06-08T12:14:18.393Z,3.17
2019-06-08T12:16:48.553Z,3.00
2019-06-08T12:19:20.879Z,3.30
2019-06-08T12:21:49.884Z,3.30
2019-06-08T12:24:19.306Z,3.53
2019-06-08T12:26:54.814Z,2.40
2019-06-08T12:29:19.848Z,2.50
2019-06-08T12:31:49.483Z,1.90
2019-06-08T12:34:19.124Z,2.90
2019-06-08T12:36:48.450Z,1.90
2019-06-08T12:39:20.954Z,2.17
2019-06-08T12:41:49.269Z,1.83
2019-06-08T12:44:20.553Z,2.10
2019-06-08T12:46:49.774Z,1.90
2019-06-08T12:49:20.377Z,1.90
2019-06-08T12:51:53.737Z,2.00
2019-06-08T12:54:22.944Z,2.07
2019-06-08T12:56:52.225Z,2.47
2019-06-08T12:59:23.042Z,3.17
2019-06-08T13:01:52.751Z,4.20
2019-06-08T13:04:23.861Z,3.70
2019-06-08T13:06:53.083Z,2.73
2019-06-08T13:09:22.577Z,2.93
2019-06-08T13:11:56.386Z,3.03
2019-06-08T13:14:43.705Z,2.90
2019-06-08T13:17:13.165Z,3.03
2019-06-08T13:19:42.566Z,2.60
2019-06-08T13:22:12.800Z,3.03
2019-06-08T13:24:42.132Z,2.90
2019-06-08T13:27:15.014Z,2.20
2019-06-08T13:29:44.223Z,1.87
2019-06-08T13:32:13.858Z,2.33
2019-06-08T13:34:43.178Z,2.00
2019-06-08T13:37:12.587Z,2.40
2019-06-08T13:39:41.882Z,2.03
2019-06-08T13:42:18.468Z,1.87
2019-06-08T13:44:48.776Z,2.30
2019-06-08T13:47:18.925Z,3.00
2019-06-08T13:49:49.130Z,8.40
2019-06-08T13:52:20.436Z,3.43
2019-06-08T13:54:49.402Z,2.77
2019-06-08T13:57:21.887Z,2.20
2019-06-08T13:59:51.659Z,3.37
2019-06-08T14:02:26.377Z,3.03
2019-06-08T14:04:53.246Z,2.87
2019-06-08T14:07:26.824Z,2.73
2019-06-08T14:09:53.520Z,2.67
2019-06-08T14:12:24.321Z,2.70
2019-06-08T14:14:55.397Z,2.83
2019-06-08T14:17:25.863Z,2.40
2019-06-08T14:19:55.588Z,2.80
2019-06-08T14:22:26.015Z,2.40
2019-06-08T14:24:55.724Z,2.33
2019-06-08T14:27:44.093Z,2.03
2019-06-08T14:30:13.463Z,3.40
2019-06-08T14:32:42.868Z,2.40
2019-06-08T14:35:14.105Z,2.30
2019-06-08T14:37:43.799Z,1.70
2019-06-08T14:40:21.867Z,1.97
2019-06-08T14:42:51.090Z,1.73
2019-06-08T14:45:23.055Z,1.37
2019-06-08T14:47:52.294Z,1.30
2019-06-08T14:50:22.781Z,1.30
2019-06-08T14:52:54.785Z,1.57
2019-06-08T14:55:33.196Z,1.17
2019-06-08T14:57:58.524Z,1.10
2019-06-08T15:00:30.838Z,1.20
2019-06-08T15:03:00.184Z,0.97
2019-06-08T15:05:32.209Z,0.90
2019-06-08T15:08:03.983Z,1.17
2019-06-08T15:10:33.244Z,1.20
2019-06-08T15:13:02.596Z,1.20
2019-06-08T15:15:38.255Z,1.10
2019-06-08T15:18:10.864Z,1.00
2019-06-08T15:20:42.353Z,0.80
2019-06-08T15:23:11.716Z,0.87
2019-06-08T15:25:40.956Z,1.00
2019-06-08T15:28:10.230Z,1.00
2019-06-08T15:30:39.462Z,1.13
2019-06-08T15:33:08.949Z,0.90
2019-06-08T15:35:38.140Z,0.90
2019-06-08T15:38:08.428Z,1.20
2019-06-08T15:40:37.961Z,0.70
2019-06-08T15:43:08.568Z,1.20
2019-06-08T15:45:38.050Z,1.00
2019-06-08T15:48:12.694Z,1.30
2019-06-08T15:50:42.220Z,1.10
2019-06-08T15:53:11.603Z,1.27
2019-06-08T15:55:41.143Z,1.30
2019-06-08T15:58:12.986Z,2.90
2019-06-08T16:00:45.600Z,0.90
2019-06-08T16:03:18.505Z,1.67
2019-06-08T16:05:50.682Z,1.00
2019-06-08T16:08:19.962Z,1.10
2019-06-08T16:10:53.005Z,1.10
2019-06-08T16:13:22.303Z,1.20
2019-06-08T16:15:51.630Z,1.20
2019-06-08T16:18:20.839Z,1.60
2019-06-08T16:20:50.167Z,1.20
2019-06-08T16:23:19.734Z,1.53
2019-06-08T16:25:48.993Z,1.27
2019-06-08T16:28:25.642Z,1.40
2019-06-08T16:30:54.946Z,1.13
2019-06-08T16:33:24.297Z,1.10
2019-06-08T16:35:53.775Z,1.10
2019-06-08T16:38:23.106Z,1.40
2019-06-08T16:40:52.303Z,1.70
2019-06-08T16:43:21.647Z,1.60
2019-06-08T16:45:51.067Z,1.67
2019-06-08T16:48:20.287Z,1.20
2019-06-08T16:50:51.586Z,1.43
2019-06-08T16:53:20.831Z,1.63
2019-06-08T16:55:50.513Z,1.50
2019-06-08T16:58:19.961Z,1.67
2019-06-08T17:00:49.301Z,1.40
2019-06-08T17:03:18.583Z,1.77
2019-06-08T17:05:48.060Z,1.20
2019-06-08T17:08:18.685Z,1.10
2019-06-08T17:10:49.355Z,1.00
2019-06-08T17:13:18.801Z,1.17
2019-06-08T17:15:48.171Z,1.20
2019-06-08T17:18:17.920Z,1.57
2019-06-08T17:20:47.288Z,1.00
2019-06-08T17:23:16.728Z,1.00
2019-06-08T17:25:46.204Z,1.67
2019-06-08T17:28:15.634Z,1.57
2019-06-08T17:30:44.914Z,1.20
2019-06-08T17:33:14.352Z,1.80
2019-06-08T17:35:43.840Z,1.50
2019-06-08T17:38:13.357Z,1.70
2019-06-08T17:40:42.718Z,1.30
2019-06-08T17:43:11.998Z,1.10
2019-06-08T17:45:42.559Z,1.10
2019-06-08T17:48:12.240Z,1.30
2019-06-08T17:50:42.866Z,1.30
2019-06-08T17:53:12.175Z,1.60
2019-06-08T17:55:41.806Z,2.00
2019-06-08T17:58:23.429Z,1.57
2019-06-08T18:00:52.923Z,1.33
2019-06-08T18:03:22.389Z,1.40
2019-06-08T18:05:51.806Z,1.50
2019-06-08T18:08:25.288Z,1.57
2019-06-08T18:10:54.785Z,1.50
2019-06-08T18:13:24.216Z,1.17
2019-06-08T18:15:53.734Z,1.70
2019-06-08T18:18:23.008Z,1.50
2019-06-08T18:20:52.497Z,1.43
2019-06-08T18:23:22.367Z,1.50
2019-06-08T18:25:53.146Z,1.37
2019-06-08T18:28:22.509Z,1.33
2019-06-08T18:30:53.006Z,1.23
2019-06-08T18:33:22.363Z,1.27
2019-06-08T18:35:58.679Z,1.53
2019-06-08T18:38:28.023Z,1.30
2019-06-08T18:40:57.532Z,1.10
2019-06-08T18:43:27.956Z,1.33
2019-06-08T18:45:57.678Z,1.40
2019-06-08T18:48:28.231Z,1.60
2019-06-08T18:50:57.673Z,1.57
2019-06-08T18:53:27.292Z,1.50
2019-06-08T18:55:58.202Z,1.60
2019-06-08T18:58:28.060Z,1.20
2019-06-08T19:01:00.988Z,1.40
2019-06-08T19:03:30.361Z,1.53
2019-06-08T19:06:00.175Z,1.50
2019-06-08T19:08:29.683Z,2.03
2019-06-08T19:10:59.072Z,1.90
2019-06-08T19:13:32.195Z,1.63
2019-06-08T19:16:01.455Z,1.60
2019-06-08T19:18:30.711Z,1.70
2019-06-08T19:21:03.676Z,1.70
2019-06-08T19:23:32.959Z,1.80
2019-06-08T19:26:02.205Z,1.73
2019-06-08T19:28:36.280Z,1.80
2019-06-08T19:31:02.704Z,1.70
2019-06-08T19:33:32.038Z,1.70
2019-06-08T19:36:03.847Z,1.80
2019-06-08T19:38:34.534Z,2.20
2019-06-08T19:41:03.949Z,1.87
2019-06-08T19:43:38.688Z,2.03
2019-06-08T19:46:07.382Z,1.93
2019-06-08T19:48:39.660Z,1.80
2019-06-08T19:51:09.174Z,1.83
2019-06-08T19:53:43.406Z,1.87
2019-06-08T19:56:09.991Z,1.67
2019-06-08T19:58:52.390Z,1.50
2019-06-08T20:01:14.135Z,1.63
2019-06-08T20:03:44.716Z,1.57
2019-06-08T20:06:14.465Z,1.60
2019-06-08T20:08:45.081Z,1.40
2019-06-08T20:11:14.374Z,1.60
2019-06-08T20:13:43.762Z,1.47
2019-06-08T20:16:13.072Z,1.57
2019-06-08T20:18:43.576Z,1.20
2019-06-08T20:21:13.062Z,1.70
2019-06-08T20:23:42.923Z,1.40
2019-06-08T20:26:12.226Z,1.77
2019-06-08T20:28:43.074Z,1.47
2019-06-08T20:31:12.860Z,1.30
2019-06-08T20:33:43.201Z,1.70
2019-06-08T20:36:13.234Z,1.93
2019-06-08T20:38:44.242Z,1.67
2019-06-08T20:41:13.495Z,1.27
2019-06-08T20:43:43.117Z,1.50
2019-06-08T20:46:20.393Z,1.87
2019-06-08T20:48:47.318Z,1.70
2019-06-08T20:51:17.253Z,1.33
2019-06-08T20:53:50.499Z,1.20
2019-06-08T20:56:19.453Z,1.40
2019-06-08T20:58:50.956Z,1.47
2019-06-08T21:01:19.878Z,1.10
2019-06-08T21:03:51.285Z,1.70
2019-06-08T21:06:20.199Z,1.70
2019-06-08T21:08:51.504Z,1.43
2019-06-08T21:11:20.473Z,1.83
2019-06-08T21:13:52.414Z,1.13
2019-06-08T21:16:20.761Z,1.67
2019-06-08T21:19:07.156Z,1.23
2019-06-08T21:21:37.669Z,1.60
2019-06-08T21:24:07.831Z,1.40
2019-06-08T21:26:37.463Z,1.67
2019-06-08T21:29:08.400Z,1.73
2019-06-08T21:31:37.879Z,1.47
2019-06-08T21:34:10.648Z,1.40
2019-06-08T21:36:39.970Z,1.40
2019-06-08T21:39:09.155Z,1.20
2019-06-08T21:41:38.431Z,1.60
2019-06-08T21:44:09.529Z,1.40
2019-06-08T21:46:38.915Z,1.63
2019-06-08T21:49:08.188Z,1.37
2019-06-08T21:51:37.834Z,1.50
2019-06-08T21:54:07.204Z,1.43
2019-06-08T21:56:37.055Z,1.53
2019-06-08T21:59:07.845Z,1.53
2019-06-08T22:01:37.585Z,1.57
2019-06-08T22:04:07.787Z,1.60
2019-06-08T22:06:38.661Z,1.67
2019-06-08T22:09:09.350Z,1.30
2019-06-08T22:11:40.210Z,1.83
2019-06-08T22:14:09.596Z,1.43
2019-06-08T22:16:38.856Z,2.33
2019-06-08T22:19:08.160Z,1.93
2019-06-08T22:21:38.662Z,1.63
2019-06-08T22:24:09.303Z,1.60
2019-06-08T22:26:39.952Z,2.00
2019-06-08T22:29:09.144Z,1.40
2019-06-08T22:31:38.348Z,1.70
2019-06-08T22:34:07.645Z,1.90
2019-06-08T22:36:37.223Z,1.83
2019-06-08T22:39:08.070Z,2.07
2019-06-08T22:41:37.690Z,1.60
2019-06-08T22:44:08.294Z,2.07
2019-06-08T22:46:37.738Z,1.63
2019-06-08T22:49:08.083Z,2.03
2019-06-08T22:51:38.343Z,1.83
2019-06-08T22:54:08.179Z,2.00
2019-06-08T22:56:37.516Z,2.20
2019-06-08T22:59:09.268Z,1.57
2019-06-08T23:01:38.729Z,1.40
2019-06-08T23:04:08.993Z,2.20
2019-06-08T23:06:38.767Z,1.53
2019-06-08T23:09:08.943Z,1.70
2019-06-08T23:11:40.009Z,1.73
2019-06-08T23:14:28.676Z,1.63
2019-06-08T23:17:00.617Z,1.57
2019-06-08T23:19:38.732Z,1.90
2019-06-08T23:22:08.470Z,1.70
2019-06-08T23:24:38.342Z,2.00
2019-06-08T23:27:07.871Z,1.50
2019-06-08T23:29:38.210Z,1.77
2019-06-08T23:32:11.609Z,2.40
2019-06-08T23:34:39.666Z,1.60
2019-06-08T23:37:12.593Z,1.80
2019-06-08T23:39:39.790Z,2.10
2019-06-08T23:42:08.982Z,2.20
2019-06-08T23:44:38.299Z,2.10
2019-06-08T23:47:09.016Z,2.00
2019-06-08T23:49:38.284Z,2.30
2019-06-08T23:52:11.296Z,1.87
2019-06-08T23:54:38.666Z,2.27
2019-06-08T23:57:10.093Z,2.00
2019-06-08T23:59:39.110Z,2.20
